Time;durP1;ratioP1;P1;durP2;ratioP2;P2;SDS_P1;SDS_P2;PMS_P1;PMS_P2;Temp;Humidity;BMP_temperature;BMP_pressure;BME280_temperature;BME280_humidity;BME280_pressure;Samples;Min_cycle;Max_cycle;Signal;HPM_P1;HPM_P2
2023/07/26 00:00:31;;;;;;;4.93;1.98;;;;;;;16.37;52.62;99258.16;5049205;28;20613;-81
2023/07/26 00:02:58;;;;;;;3.15;1.77;;;;;;;16.36;52.69;99264.44;5048970;28;20048;-81
2023/07/26 00:05:24;;;;;;;2.15;1.70;;;;;;;16.35;52.79;99257.47;5048690;28;20060;-81
2023/07/26 00:07:52;;;;;;;3.08;1.70;;;;;;;16.35;53.20;99259.28;5049684;28;20082;-81
2023/07/26 00:10:18;;;;;;;6.97;1.60;;;;;;;16.34;53.19;99255.75;5035543;28;20498;-81
2023/07/26 00:12:45;;;;;;;4.63;1.80;;;;;;;16.34;52.65;99263.72;5035385;28;20490;-81
2023/07/26 00:15:11;;;;;;;6.03;1.95;;;;;;;16.34;53.32;99254.94;5052940;28;20526;-81
2023/07/26 00:17:38;;;;;;;3.75;1.73;;;;;;;16.34;53.46;99260.25;5035309;28;20041;-81
2023/07/26 00:20:05;;;;;;;4.18;1.83;;;;;;;16.34;53.35;99265.56;5053236;28;20487;-80
2023/07/26 00:22:32;;;;;;;2.92;1.60;;;;;;;16.34;53.50;99257.59;5052761;28;20131;-80
2023/07/26 00:25:00;;;;;;;3.45;1.70;;;;;;;16.34;53.31;99255.75;5052835;28;20052;-80
2023/07/26 00:27:26;;;;;;;2.78;1.55;;;;;;;16.34;53.37;99254.94;5052827;28;20049;-80
2023/07/26 00:29:53;;;;;;;3.38;1.52;;;;;;;16.34;53.46;99253.09;5052799;28;20084;-81
2023/07/26 00:32:19;;;;;;;1.60;1.40;;;;;;;16.34;53.51;99254.94;5052790;28;20087;-80
2023/07/26 00:34:46;;;;;;;4.45;1.50;;;;;;;16.33;53.86;99254.09;5034882;28;20510;-80
2023/07/26 00:37:12;;;;;;;3.47;1.67;;;;;;;16.33;53.62;99258.56;5052514;28;20053;-80
2023/07/26 00:39:39;;;;;;;3.45;1.80;;;;;;;16.32;53.54;99259.53;5053006;28;20048;-80
2023/07/26 00:42:05;;;;;;;4.70;2.00;;;;;;;16.31;53.53;99260.53;5052736;28;20057;-80
2023/07/26 00:44:32;;;;;;;2.42;1.52;;;;;;;16.30;53.51;99264.16;5052727;28;20061;-82
2023/07/26 00:46:58;;;;;;;4.10;1.80;;;;;;;16.27;53.80;99266.09;5034599;28;20049;-81
2023/07/26 00:49:26;;;;;;;4.80;2.47;;;;;;;16.26;53.97;99267.06;5052969;28;20045;-81
2023/07/26 00:51:52;;;;;;;3.17;1.88;;;;;;;16.25;54.05;99260.09;5052549;28;20067;-80
2023/07/26 00:54:20;;;;;;;5.35;1.80;;;;;;;16.26;54.19;99266.25;5034944;28;20051;-80
2023/07/26 00:56:47;;;;;;;4.68;1.73;;;;;;;16.26;54.15;99259.09;5052415;28;20060;-81
2023/07/26 00:59:13;;;;;;;5.78;1.92;;;;;;;16.27;54.37;99270.59;5052477;28;20057;-81
2023/07/26 01:01:40;;;;;;;2.38;1.65;;;;;;;16.30;54.52;99274.78;5052222;28;20048;-81
2023/07/26 01:04:06;;;;;;;3.95;1.65;;;;;;;16.32;54.52;99270.16;5052191;28;20507;-81
2023/07/26 01:06:39;;;;;;;2.05;1.60;;;;;;;16.31;54.82;99272.00;5034412;28;20044;-81
2023/07/26 01:09:36;;;;;;;2.85;1.70;;;;;;;16.32;54.74;99276.31;5052567;28;20049;-80
2023/07/26 01:12:09;;;;;;;2.95;1.52;;;;;;;16.36;54.67;99276.88;5051571;28;20053;-81
2023/07/26 01:14:47;;;;;;;1.80;1.45;;;;;;;16.39;54.15;99273.94;5051779;28;20519;-80
2023/07/26 01:17:14;;;;;;;2.28;1.80;;;;;;;16.39;54.16;99282.78;5051985;28;20152;-81
2023/07/26 01:19:41;;;;;;;2.67;1.95;;;;;;;16.41;54.45;99278.16;5051901;28;20053;-80
2023/07/26 01:22:08;;;;;;;4.00;1.90;;;;;;;16.42;54.45;99284.31;5034025;28;20063;-81
2023/07/26 01:24:34;;;;;;;2.95;1.67;;;;;;;16.42;54.47;99289.63;5051690;28;20527;-81
2023/07/26 01:27:00;;;;;;;3.85;1.92;;;;;;;16.45;54.30;99277.88;5033473;28;20041;-80
2023/07/26 01:29:27;;;;;;;5.28;1.83;;;;;;;16.45;54.41;99278.69;5051985;28;20091;-81
2023/07/26 01:31:53;;;;;;;2.90;1.80;;;;;;;16.44;54.53;99271.72;5033911;28;20049;-81
2023/07/26 01:34:20;;;;;;;3.13;1.80;;;;;;;16.45;54.41;99272.56;5051835;28;20045;-81
2023/07/26 01:36:49;;;;;;;5.03;2.40;;;;;;;16.46;54.46;99276.91;5051303;28;20045;-81
2023/07/26 01:39:16;;;;;;;6.30;1.90;;;;;;;16.44;54.48;99277.03;5051689;28;20503;-81
2023/07/26 01:41:43;;;;;;;3.17;1.80;;;;;;;16.44;54.29;99282.34;5051722;28;20140;-81
2023/07/26 01:44:11;;;;;;;3.58;2.20;;;;;;;16.42;54.44;99285.13;5051272;28;20140;-81
2023/07/26 01:46:38;;;;;;;5.47;1.75;;;;;;;16.41;54.47;99283.47;5051329;28;20052;-81
2023/07/26 01:49:05;;;;;;;4.35;1.90;;;;;;;16.39;54.54;99280.13;5033904;28;20049;-80
2023/07/26 01:51:31;;;;;;;3.30;1.90;;;;;;;16.38;54.68;99273.09;5033923;28;20049;-81
2023/07/26 01:53:58;;;;;;;5.25;1.80;;;;;;;16.37;54.63;99281.22;5051063;28;20155;-80
2023/07/26 01:56:24;;;;;;;4.45;1.83;;;;;;;16.36;54.81;99284.84;5051047;28;20556;-80
2023/07/26 01:58:51;;;;;;;2.40;1.58;;;;;;;16.34;54.80;99277.00;5051095;28;20507;-81
2023/07/26 02:01:17;;;;;;;2.15;1.80;;;;;;;16.34;55.23;99281.50;5051346;28;20053;-81
2023/07/26 02:03:44;;;;;;;3.13;1.65;;;;;;;16.32;54.87;99292.25;5050980;28;20081;-81
2023/07/26 02:06:10;;;;;;;2.05;1.70;;;;;;;16.31;55.25;99284.41;5051165;28;20059;-81
2023/07/26 02:08:36;;;;;;;4.07;1.65;;;;;;;16.30;55.63;99283.59;5050936;28;20503;-80
2023/07/26 02:11:03;;;;;;;2.17;1.70;;;;;;;16.29;55.50;99281.91;5051159;28;20087;-81
2023/07/26 02:13:29;;;;;;;3.00;1.80;;;;;;;16.28;55.44;99280.22;5050576;28;20505;-81
2023/07/26 02:15:56;;;;;;;5.40;1.60;;;;;;;16.26;55.43;99275.03;5033112;28;20132;-81
2023/07/26 02:18:23;;;;;;;2.25;1.85;;;;;;;16.26;55.54;99277.69;5050910;28;20049;-81
2023/07/26 02:20:49;;;;;;;3.60;1.80;;;;;;;16.25;55.24;99281.34;5033202;28;20124;-81
2023/07/26 02:23:15;;;;;;;6.32;1.80;;;;;;;16.24;55.59;99279.66;5050648;28;20487;-81
2023/07/26 02:25:42;;;;;;;2.42;1.70;;;;;;;16.24;55.69;99284.13;5032547;28;20152;-81
2023/07/26 02:28:08;;;;;;;2.30;1.65;;;;;;;16.22;55.46;99289.56;5033090;28;20055;-81
2023/07/26 02:30:35;;;;;;;3.00;1.70;;;;;;;16.20;55.46;99280.91;5050307;28;20056;-81
2023/07/26 02:33:01;;;;;;;4.93;2.20;;;;;;;16.20;55.52;99293.34;5050793;28;20435;-81
2023/07/26 02:35:28;;;;;;;3.80;1.98;;;;;;;16.18;55.54;99287.34;5050103;28;20609;-81
2023/07/26 02:37:54;;;;;;;1.75;1.58;;;;;;;16.17;55.92;99281.19;5050631;28;20055;-81
2023/07/26 02:40:21;;;;;;;4.15;1.85;;;;;;;16.16;55.79;99290.13;5032721;28;20112;-80
2023/07/26 02:42:47;;;;;;;1.95;1.75;;;;;;;16.15;55.55;99283.16;5050761;28;20063;-80
2023/07/26 02:45:14;;;;;;;2.92;2.03;;;;;;;16.17;55.72;99290.94;5032345;28;20092;-80
2023/07/26 02:47:40;;;;;;;3.50;2.13;;;;;;;16.16;55.68;99287.47;5032057;28;20502;-81
2023/07/26 02:50:07;;;;;;;4.00;2.00;;;;;;;16.16;55.64;99292.78;5050130;28;20122;-80
2023/07/26 02:52:33;;;;;;;3.65;2.00;;;;;;;16.14;55.56;99282.28;5050217;28;20060;-81
2023/07/26 02:55:00;;;;;;;2.92;1.95;;;;;;;16.14;55.86;99284.94;5050181;28;20060;-81
2023/07/26 02:57:27;;;;;;;5.10;2.40;;;;;;;16.13;55.58;99283.28;5050227;28;20045;-80
2023/07/26 02:59:53;;;;;;;3.17;2.10;;;;;;;16.12;55.60;99283.41;5049875;28;20044;-81
2023/07/26 03:02:19;;;;;;;4.28;2.00;;;;;;;16.10;55.50;99277.38;5032584;28;20114;-80
2023/07/26 03:04:46;;;;;;;5.07;2.28;;;;;;;16.09;55.47;99283.66;5049768;28;20481;-81
2023/07/26 03:07:12;;;;;;;4.65;2.13;;;;;;;16.07;55.68;99277.66;5049794;28;20041;-81
2023/07/26 03:09:39;;;;;;;5.75;2.08;;;;;;;16.06;55.55;99281.28;5049929;28;20049;-81
2023/07/26 03:12:06;;;;;;;6.15;2.50;;;;;;;16.04;55.81;99283.22;5049922;28;20060;-80
2023/07/26 03:14:32;;;;;;;3.60;2.30;;;;;;;16.02;55.52;99284.22;5032041;28;20458;-81
2023/07/26 03:16:58;;;;;;;3.30;2.10;;;;;;;16.01;55.64;99279.84;5049588;28;20045;-80
2023/07/26 03:19:45;;;;;;;3.40;2.33;;;;;;;16.00;55.53;99280.84;5050070;28;20053;-81
2023/07/26 03:22:11;;;;;;;5.75;2.60;;;;;;;15.99;55.52;99283.63;5049954;28;20419;-80
2023/07/26 03:24:38;;;;;;;2.90;2.25;;;;;;;15.95;55.88;99280.41;5070699;22;20044;-77
2023/07/26 03:27:06;;;;;;;3.58;2.53;;;;;;;15.95;55.75;99287.53;5042601;28;20183;-76
2023/07/26 03:29:33;;;;;;;4.38;2.20;;;;;;;15.93;55.83;99290.31;5051454;28;20060;-77
2023/07/26 03:32:00;;;;;;;3.92;2.38;;;;;;;15.91;55.79;99289.59;5050679;28;20049;-77
2023/07/26 03:34:26;;;;;;;3.75;2.13;;;;;;;15.89;55.84;99292.38;5050658;28;20053;-77
2023/07/26 03:36:53;;;;;;;4.28;2.50;;;;;;;15.87;56.03;99290.81;5050317;28;20053;-76
2023/07/26 03:39:20;;;;;;;4.10;2.38;;;;;;;15.86;55.87;99286.50;5033037;28;20049;-76
2023/07/26 03:41:47;;;;;;;2.95;2.30;;;;;;;15.85;56.11;99298.09;5049066;28;20068;-76
2023/07/26 03:44:13;;;;;;;2.90;2.13;;;;;;;15.83;55.94;99298.22;5049917;28;20048;-77
2023/07/26 03:46:40;;;;;;;6.63;1.92;;;;;;;15.82;55.96;99295.69;5050299;28;20386;-79
2023/07/26 03:49:07;;;;;;;4.45;2.20;;;;;;;15.80;56.06;99293.16;5050475;28;20049;-77
2023/07/26 03:51:33;;;;;;;4.80;2.10;;;;;;;15.80;55.94;99302.94;5062336;28;20079;-77
2023/07/26 03:54:00;;;;;;;3.45;1.67;;;;;;;15.78;55.87;99300.44;5070671;28;20052;-77
2023/07/26 03:56:26;;;;;;;3.75;2.05;;;;;;;15.76;55.81;99307.69;5070403;28;20481;-77
2023/07/26 03:58:53;;;;;;;2.88;2.22;;;;;;;15.74;55.75;99299.84;5070391;28;20052;-76
2023/07/26 04:01:19;;;;;;;3.88;2.08;;;;;;;15.71;55.94;99300.13;5063133;28;20045;-77
2023/07/26 04:03:46;;;;;;;4.47;2.20;;;;;;;15.70;55.87;99302.91;5032784;28;20048;-77
2023/07/26 04:06:13;;;;;;;2.30;1.83;;;;;;;15.66;56.07;99306.78;5050369;28;20509;-79
2023/07/26 04:08:40;;;;;;;3.33;2.50;;;;;;;15.63;56.22;99306.06;5033434;28;20527;-76
2023/07/26 04:11:07;;;;;;;3.85;2.28;;;;;;;15.62;55.90;99311.50;5051051;28;20053;-77
2023/07/26 04:13:34;;;;;;;5.15;2.30;;;;;;;15.60;56.16;99308.16;5050506;28;20053;-77
2023/07/26 04:16:01;;;;;;;3.30;2.30;;;;;;;15.57;56.14;99306.59;5050253;28;20049;-77
2023/07/26 04:18:27;;;;;;;4.38;2.67;;;;;;;15.57;56.13;99317.22;5050130;28;20088;-76
2023/07/26 04:20:54;;;;;;;3.58;2.33;;;;;;;15.56;56.11;99309.38;5067001;28;20048;-76
2023/07/26 04:23:21;;;;;;;4.88;2.53;;;;;;;15.55;55.88;99313.03;5070550;28;20049;-77
2023/07/26 04:25:49;;;;;;;4.75;2.58;;;;;;;15.52;56.38;99314.13;5070039;28;20140;-76
2023/07/26 04:28:16;;;;;;;2.65;2.20;;;;;;;15.51;56.58;99312.41;5051856;28;20084;-78
2023/07/26 04:30:44;;;;;;;2.97;2.28;;;;;;;15.50;56.64;99313.41;5068344;28;20049;-79
2023/07/26 04:33:10;;;;;;;4.63;2.40;;;;;;;15.52;56.53;99310.63;5061710;28;20456;-77
2023/07/26 04:35:37;;;;;;;5.82;2.72;;;;;;;15.53;56.74;99315.78;5050216;28;20060;-76
2023/07/26 04:38:04;;;;;;;4.55;2.50;;;;;;;15.54;56.86;99317.47;5049973;28;20504;-76
2023/07/26 04:40:30;;;;;;;3.70;2.20;;;;;;;15.57;56.78;99316.38;5065425;28;20059;-76
2023/07/26 04:42:57;;;;;;;4.90;2.58;;;;;;;15.60;56.85;99321.41;5069886;28;20049;-76
2023/07/26 04:45:24;;;;;;;5.45;2.70;;;;;;;15.61;56.87;99323.94;5069823;28;20055;-76
2023/07/26 04:47:50;;;;;;;6.25;2.95;;;;;;;15.63;56.72;99323.81;5069879;28;20057;-77
2023/07/26 04:50:17;;;;;;;4.78;2.45;;;;;;;15.67;56.84;99332.34;5059146;28;20136;-78
2023/07/26 04:52:43;;;;;;;4.97;2.22;;;;;;;15.67;56.82;99322.59;5032404;28;20048;-78
2023/07/26 04:55:10;;;;;;;3.17;2.40;;;;;;;15.70;56.83;99322.31;5052513;28;20045;-76
2023/07/26 04:57:39;;;;;;;4.57;3.00;;;;;;;15.71;57.19;99329.31;5053347;28;20045;-77
2023/07/26 05:00:07;;;;;;;6.13;2.60;;;;;;;15.75;57.03;99327.22;5054840;28;20059;-76
2023/07/26 05:02:35;;;;;;;3.40;2.60;;;;;;;15.78;56.96;99329.63;5046599;28;20122;-76
2023/07/26 05:05:02;;;;;;;6.43;2.85;;;;;;;15.81;57.07;99334.66;5073528;28;20048;-78
2023/07/26 05:07:28;;;;;;;4.28;3.10;;;;;;;15.83;57.18;99331.88;5073272;28;20106;-78
2023/07/26 05:09:55;;;;;;;6.97;2.78;;;;;;;15.85;57.02;99333.41;5071636;28;20472;-78
2023/07/26 05:12:21;;;;;;;5.88;2.72;;;;;;;15.88;56.93;99337.63;5035834;28;20045;-79
2023/07/26 05:14:48;;;;;;;4.93;2.80;;;;;;;15.90;56.98;99341.00;5053074;28;20052;-77
2023/07/26 05:17:15;;;;;;;4.03;2.63;;;;;;;15.91;56.95;99347.97;5053131;28;20057;-78
2023/07/26 05:19:41;;;;;;;4.38;2.88;;;;;;;15.93;56.99;99353.16;5058088;28;20045;-77
2023/07/26 05:22:08;;;;;;;4.22;2.65;;;;;;;15.95;56.89;99349.41;5073262;28;20052;-78
2023/07/26 05:24:37;;;;;;;3.30;3.00;;;;;;;15.95;56.89;99348.56;5072693;28;20045;-78
2023/07/26 05:27:05;;;;;;;3.70;3.03;;;;;;;15.95;56.94;99346.78;5071884;28;20473;-79
2023/07/26 05:29:31;;;;;;;3.92;3.13;;;;;;;15.96;57.07;99353.75;5071266;28;20507;-78
2023/07/26 05:31:58;;;;;;;7.00;2.72;;;;;;;15.97;57.05;99355.47;5057107;28;20516;-77
2023/07/26 05:34:25;;;;;;;5.35;3.45;;;;;;;15.99;57.20;99360.59;5064274;28;20056;-79
2023/07/26 05:36:51;;;;;;;4.60;3.10;;;;;;;15.99;56.96;99353.50;5052421;28;20571;-78
2023/07/26 05:39:18;;;;;;;9.15;3.33;;;;;;;16.00;56.88;99357.81;5052584;28;20049;-78
2023/07/26 05:41:45;;;;;;;5.65;3.08;;;;;;;16.02;56.94;99363.00;5069317;28;20048;-79
2023/07/26 05:44:11;;;;;;;3.85;2.78;;;;;;;16.02;57.10;99363.84;5072984;28;20057;-79
2023/07/26 05:46:38;;;;;;;3.90;3.20;;;;;;;16.02;57.20;99358.56;5072776;28;20110;-79
2023/07/26 05:49:04;;;;;;;6.55;3.17;;;;;;;16.03;57.37;99359.38;5072883;28;20081;-79
2023/07/26 05:51:31;;;;;;;6.00;3.35;;;;;;;16.07;57.45;99359.97;5060021;28;20063;-78
2023/07/26 05:53:58;;;;;;;6.43;3.65;;;;;;;16.10;57.60;99362.34;5052596;28;20518;-78
2023/07/26 05:56:25;;;;;;;5.07;3.53;;;;;;;16.15;57.47;99363.63;5052342;28;20056;-79
2023/07/26 05:58:51;;;;;;;5.45;3.67;;;;;;;16.20;57.57;99355.25;5052507;28;20492;-80
2023/07/26 06:01:18;;;;;;;6.50;3.13;;;;;;;16.25;57.52;99358.34;5059673;28;20056;-78
2023/07/26 06:03:45;;;;;;;6.40;3.45;;;;;;;16.32;57.68;99363.13;5072526;28;20052;-79
2023/07/26 06:06:12;;;;;;;6.80;4.05;;;;;;;16.38;57.74;99354.63;5071342;28;20048;-79
2023/07/26 06:08:39;;;;;;;5.03;3.60;;;;;;;16.44;57.80;99358.56;5072346;28;20048;-79
2023/07/26 06:11:05;;;;;;;4.82;3.22;;;;;;;16.49;57.64;99362.47;5071706;28;20044;-78
2023/07/26 06:13:32;;;;;;;4.57;3.20;;;;;;;16.53;57.30;99358.56;5071981;28;20048;-79
2023/07/26 06:15:59;;;;;;;7.93;3.90;;;;;;;16.58;57.49;99357.31;5054470;28;20102;-78
2023/07/26 06:18:25;;;;;;;4.00;3.10;;;;;;;16.62;57.08;99354.25;5053909;28;20048;-79
2023/07/26 06:20:52;;;;;;;4.80;3.38;;;;;;;16.66;57.47;99360.13;5054514;28;20511;-79
2023/07/26 06:23:18;;;;;;;7.65;3.50;;;;;;;16.70;57.55;99360.72;5053159;28;20048;-78
2023/07/26 06:25:45;;;;;;;9.68;3.53;;;;;;;16.74;57.36;99370.09;5051973;28;20554;-78
2023/07/26 06:28:12;;;;;;;3.58;3.13;;;;;;;16.77;57.29;99356.50;5051940;28;20056;-79
2023/07/26 06:30:38;;;;;;;4.15;2.92;;;;;;;16.81;57.45;99357.91;5052059;28;20048;-80
2023/07/26 06:33:05;;;;;;;6.60;3.45;;;;;;;16.84;57.30;99368.28;5065147;28;20552;-78
2023/07/26 06:35:32;;;;;;;5.15;3.30;;;;;;;16.87;57.36;99361.84;5071467;28;20044;-79
2023/07/26 06:37:58;;;;;;;3.80;3.20;;;;;;;16.90;57.25;99367.72;5071502;28;20057;-79
2023/07/26 06:40:25;;;;;;;3.05;2.78;;;;;;;16.93;56.98;99371.91;5071846;28;20056;-79
2023/07/26 06:42:52;;;;;;;7.00;3.50;;;;;;;16.95;57.03;99372.63;5062349;28;20080;-78
2023/07/26 06:45:18;;;;;;;6.45;3.85;;;;;;;16.99;57.14;99375.84;5050321;28;20457;-79
2023/07/26 06:47:46;;;;;;;5.72;3.67;;;;;;;17.02;57.20;99370.25;5051329;28;20087;-78
2023/07/26 06:50:13;;;;;;;5.78;3.83;;;;;;;17.04;57.37;99378.91;5049304;28;20517;-79
2023/07/26 06:52:39;;;;;;;6.43;3.70;;;;;;;17.06;57.01;99372.53;5053492;28;20056;-78
2023/07/26 06:55:06;;;;;;;3.42;3.10;;;;;;;17.12;57.35;99378.28;5031921;28;20092;-78
2023/07/26 06:57:33;;;;;;;3.63;3.28;;;;;;;17.15;57.57;99381.50;5042958;28;20444;-79
2023/07/26 06:59:59;;;;;;;8.05;3.80;;;;;;;17.19;57.35;99380.22;5051042;28;20049;-79
2023/07/26 07:02:26;;;;;;;6.03;3.63;;;;;;;17.25;57.32;99381.50;5048759;28;20131;-79
2023/07/26 07:04:52;;;;;;;7.72;3.30;;;;;;;17.28;57.04;99383.88;5066922;28;20106;-79
2023/07/26 07:07:19;;;;;;;3.95;3.42;;;;;;;17.32;56.96;99379.13;5049518;28;20049;-79
2023/07/26 07:09:46;;;;;;;5.22;3.92;;;;;;;17.36;57.35;99374.34;5050614;28;20056;-79
2023/07/26 07:12:12;;;;;;;4.65;3.47;;;;;;;17.39;57.51;99387.38;5033251;28;20045;-79
2023/07/26 07:14:39;;;;;;;3.47;3.15;;;;;;;17.44;57.30;99390.44;5050701;28;20053;-78
2023/07/26 07:17:05;;;;;;;3.88;3.47;;;;;;;17.48;57.08;99381.19;5050374;28;20501;-79
2023/07/26 07:19:32;;;;;;;3.97;3.05;;;;;;;17.52;57.26;99381.75;5050682;28;20477;-79
2023/07/26 07:21:59;;;;;;;3.33;3.03;;;;;;;17.55;57.51;99381.47;5033129;28;20061;-79
2023/07/26 07:24:25;;;;;;;5.10;3.17;;;;;;;17.59;57.21;99385.53;5050918;28;20059;-79
2023/07/26 07:26:52;;;;;;;7.57;3.60;;;;;;;17.64;57.42;99393.09;5050413;28;20124;-79
2023/07/26 07:29:19;;;;;;;5.05;3.20;;;;;;;17.68;57.44;99378.53;5050729;28;20056;-79
2023/07/26 07:31:46;;;;;;;4.70;2.80;;;;;;;17.74;57.58;99391.25;5050713;28;20775;-79
2023/07/26 07:34:12;;;;;;;3.83;2.50;;;;;;;17.80;57.66;99390.66;5050409;28;20409;-79
2023/07/26 07:36:39;;;;;;;6.63;3.25;;;;;;;17.87;56.94;99387.44;5050299;28;20056;-79
2023/07/26 07:39:08;;;;;;;4.00;2.70;;;;;;;17.93;57.04;99397.50;5050640;28;20052;-80
2023/07/26 07:41:37;;;;;;;4.57;2.53;;;;;;;17.98;57.07;99395.22;5050394;28;20485;-79
2023/07/26 07:44:04;;;;;;;5.97;2.17;;;;;;;18.06;56.95;99386.53;5050314;28;20481;-79
2023/07/26 07:46:30;;;;;;;6.28;2.45;;;;;;;18.13;57.71;99394.81;5050239;28;20613;-78
2023/07/26 07:48:57;;;;;;;3.88;2.63;;;;;;;18.21;57.46;99392.28;5032334;28;20049;-79
2023/07/26 07:51:24;;;;;;;2.53;2.13;;;;;;;18.30;57.34;99396.72;5050484;28;20055;-78
2023/07/26 07:53:50;;;;;;;4.65;2.67;;;;;;;18.41;57.46;99392.16;5050202;28;20048;-79
2023/07/26 07:56:17;;;;;;;3.45;2.30;;;;;;;18.54;57.17;99386.50;5050059;28;20053;-79
2023/07/26 07:58:44;;;;;;;4.10;1.90;;;;;;;18.64;56.30;99394.47;5049975;28;20049;-79
2023/07/26 08:01:10;;;;;;;3.90;1.98;;;;;;;18.73;56.30;99388.22;5050188;28;20068;-79
2023/07/26 08:03:37;;;;;;;2.60;1.90;;;;;;;18.81;55.71;99382.97;5050360;28;20748;-79
2023/07/26 08:06:04;;;;;;;5.03;1.73;;;;;;;18.91;55.37;99396.22;5050123;28;20088;-79
2023/07/26 08:08:30;;;;;;;7.80;2.40;;;;;;;18.99;55.09;99390.97;5050112;28;20060;-79
2023/07/26 08:10:57;;;;;;;5.28;2.40;;;;;;;19.08;55.08;99389.28;5050026;28;20045;-79
2023/07/26 08:13:23;;;;;;;13.60;3.83;;;;;;;19.17;54.67;99394.69;5050117;28;20110;-80
2023/07/26 08:15:50;;;;;;;5.68;2.10;;;;;;;19.24;54.74;99399.25;5049829;28;20520;-78
2023/07/26 08:18:17;;;;;;;5.25;1.50;;;;;;;19.31;54.65;99398.63;5049965;28;20481;-79
2023/07/26 08:20:43;;;;;;;2.90;1.40;;;;;;;19.37;53.69;99395.38;5050230;28;20052;-79
2023/07/26 08:23:10;;;;;;;2.72;1.55;;;;;;;19.42;53.85;99400.22;5049877;28;20679;-79
2023/07/26 08:25:37;;;;;;;2.13;1.63;;;;;;;19.50;53.60;99408.31;5049977;28;20063;-78
2023/07/26 08:28:04;;;;;;;1.95;1.50;;;;;;;19.59;53.52;99401.22;5049901;28;20060;-79
2023/07/26 08:30:30;;;;;;;4.38;1.70;;;;;;;19.70;52.93;99397.44;5053294;28;20102;-79
2023/07/26 08:32:57;;;;;;;2.10;1.48;;;;;;;19.82;52.65;99392.69;5054052;28;20627;-79
2023/07/26 08:35:24;;;;;;;2.40;1.20;;;;;;;19.96;52.94;99399.28;5053806;28;20064;-79
2023/07/26 08:37:51;;;;;;;2.03;1.17;;;;;;;20.08;52.16;99394.53;5053757;28;20134;-79
2023/07/26 08:40:18;;;;;;;2.53;1.38;;;;;;;20.20;52.30;99400.44;5054050;28;20138;-79
2023/07/26 08:42:45;;;;;;;11.70;2.17;;;;;;;20.26;51.49;99402.50;5053691;28;20490;-79
2023/07/26 08:45:13;;;;;;;2.47;1.55;;;;;;;20.29;50.94;99405.69;5053869;28;20514;-78
2023/07/26 08:47:39;;;;;;;2.25;1.35;;;;;;;20.31;50.33;99411.69;5035897;28;20044;-79
2023/07/26 08:50:07;;;;;;;2.25;1.40;;;;;;;20.33;50.11;99413.38;5053690;28;20060;-79
2023/07/26 08:52:34;;;;;;;2.65;1.42;;;;;;;20.34;49.88;99415.06;5053641;28;20056;-79
2023/07/26 08:55:01;;;;;;;1.95;1.27;;;;;;;20.36;49.86;99411.22;5053306;28;20067;-79
2023/07/26 08:57:28;;;;;;;2.55;1.60;;;;;;;20.39;50.95;99418.94;5053264;28;20063;-79
2023/07/26 08:59:54;;;;;;;3.13;1.70;;;;;;;20.47;50.86;99419.94;5053568;28;20391;-79
2023/07/26 09:02:23;;;;;;;2.97;1.52;;;;;;;20.55;50.87;99406.59;5035946;28;20141;-79
2023/07/26 09:04:50;;;;;;;2.15;1.90;;;;;;;20.64;51.29;99410.97;5053177;28;20570;-79
2023/07/26 09:07:16;;;;;;;2.45;1.67;;;;;;;20.72;50.71;99404.00;5035509;28;20080;-79
2023/07/26 09:09:43;;;;;;;2.30;1.73;;;;;;;20.79;50.11;99403.19;5053372;28;20072;-79
2023/07/26 09:12:23;;;;;;;2.53;1.20;;;;;;;20.82;49.58;99404.72;5053347;28;20084;-79
2023/07/26 09:14:52;;;;;;;2.45;1.73;;;;;;;20.89;49.39;99405.75;5035461;28;20057;-79
2023/07/26 09:17:19;;;;;;;2.72;1.73;;;;;;;20.93;49.65;99406.28;5053081;28;20099;-78
2023/07/26 09:19:46;;;;;;;3.28;1.70;;;;;;;20.94;49.39;99406.09;5052914;28;20052;-79
2023/07/26 09:22:12;;;;;;;4.63;1.48;;;;;;;20.90;49.56;99398.56;5053071;28;20076;-80
2023/07/26 09:24:40;;;;;;;2.88;1.65;;;;;;;20.85;49.29;99396.34;5052746;28;20053;-79
2023/07/26 09:27:19;;;;;;;2.53;1.40;;;;;;;20.80;48.79;99398.69;5078230;22;20055;-79
2023/07/26 09:29:54;;;;;;;2.10;1.60;;;;;;;20.69;48.18;99399.81;5053567;28;20053;-79
2023/07/26 09:32:29;;;;;;;4.85;1.40;;;;;;;20.63;49.00;99395.94;5053254;28;20555;-78
2023/07/26 09:35:04;;;;;;;2.95;1.60;;;;;;;20.62;48.67;99390.75;5052749;28;20048;-79
2023/07/26 09:37:33;;;;;;;5.38;1.55;;;;;;;20.57;48.42;99388.59;5052850;28;20044;-79
2023/07/26 09:40:00;;;;;;;2.40;1.80;;;;;;;20.54;48.83;99395.09;5052851;28;20041;-79
2023/07/26 09:42:42;;;;;;;3.33;2.00;;;;;;;20.49;49.11;99393.91;5053007;28;20231;-80
2023/07/26 09:45:14;;;;;;;3.10;1.80;;;;;;;20.55;50.89;99395.91;5052774;28;20045;-79
2023/07/26 09:47:43;;;;;;;2.30;1.55;;;;;;;20.64;51.01;99391.44;5052640;28;20559;-80
2023/07/26 09:50:27;;;;;;;3.70;1.98;;;;;;;20.74;51.00;99391.31;5035032;28;20555;-80
2023/07/26 09:52:57;;;;;;;3.08;1.98;;;;;;;20.94;50.37;99392.72;5052905;28;20091;-80
2023/07/26 09:55:26;;;;;;;4.68;2.00;;;;;;;21.06;49.70;99382.56;5052806;28;20501;-79
2023/07/26 09:58:00;;;;;;;17.60;2.40;;;;;;;21.17;48.26;99391.25;5035651;28;20053;-79
2023/07/26 10:00:28;;;;;;;2.60;2.10;;;;;;;21.19;47.33;99397.25;5034680;28;20052;-80
2023/07/26 10:02:57;;;;;;;2.63;1.60;;;;;;;21.17;47.47;99391.25;5052705;28;20080;-80
2023/07/26 10:05:30;;;;;;;2.35;1.70;;;;;;;21.08;46.92;99396.59;5052146;28;20049;-79
2023/07/26 10:07:56;;;;;;;4.18;1.77;;;;;;;21.04;47.54;99394.41;5052432;28;20080;-80
2023/07/26 10:10:28;;;;;;;2.38;1.88;;;;;;;20.97;47.39;99388.88;5052358;28;20052;-80
2023/07/26 10:12:57;;;;;;;2.05;1.75;;;;;;;20.93;47.83;99391.03;5052412;28;20501;-79
2023/07/26 10:15:25;;;;;;;5.00;1.83;;;;;;;20.94;48.78;99386.53;5052178;28;20076;-79
2023/07/26 10:17:52;;;;;;;3.05;2.00;;;;;;;20.99;48.88;99376.19;5052256;28;20053;-79
2023/07/26 10:20:19;;;;;;;3.05;1.88;;;;;;;21.11;49.16;99368.66;5052296;28;20159;-80
2023/07/26 10:22:47;;;;;;;4.80;1.80;;;;;;;21.21;48.49;99385.41;5034564;28;20049;-78
2023/07/26 10:25:14;;;;;;;3.83;1.60;;;;;;;21.31;47.97;99371.84;5034178;28;20434;-80
2023/07/26 10:27:43;;;;;;;3.85;1.27;;;;;;;21.38;48.25;99369.31;5034268;28;20084;-78
2023/07/26 10:30:10;;;;;;;1.90;1.52;;;;;;;21.44;47.88;99370.50;5052337;28;20139;-80
2023/07/26 10:32:48;;;;;;;3.92;1.42;;;;;;;21.43;46.99;99369.69;5052059;28;20057;-78
2023/07/26 10:35:32;;;;;;;3.03;1.70;;;;;;;21.42;47.26;99370.66;5051685;28;20095;-79
2023/07/26 10:38:02;;;;;;;4.95;1.95;;;;;;;21.42;46.89;99365.31;5051533;28;20473;-80
2023/07/26 10:40:30;;;;;;;3.63;1.73;;;;;;;21.38;47.04;99369.31;5034185;28;20049;-80
2023/07/26 10:42:59;;;;;;;2.13;1.42;;;;;;;21.31;46.74;99371.03;5051683;28;20049;-79
2023/07/26 10:45:43;;;;;;;3.17;1.20;;;;;;;21.19;46.78;99363.31;5051491;28;20468;-80
2023/07/26 10:48:26;;;;;;;2.63;1.45;;;;;;;21.21;46.41;99353.28;5033809;28;20048;-78
2023/07/26 10:50:57;;;;;;;2.63;1.40;;;;;;;21.25;46.65;99351.09;5051796;28;20061;-79
2023/07/26 10:53:36;;;;;;;2.28;1.17;;;;;;;21.29;46.45;99355.13;5051295;28;20053;-79
2023/07/26 10:56:10;;;;;;;1.20;1.10;;;;;;;21.36;46.09;99349.94;5051352;28;20128;-79
2023/07/26 10:58:55;;;;;;;1.45;1.35;;;;;;;21.41;46.60;99355.59;5051209;28;20140;-79
2023/07/26 11:01:37;;;;;;;2.70;1.20;;;;;;;21.50;46.03;99355.59;5051210;28;20049;-80
2023/07/26 11:04:15;;;;;;;1.58;1.20;;;;;;;21.57;46.02;99346.72;5051352;28;20511;-80
2023/07/26 11:06:55;;;;;;;1.25;1.10;;;;;;;21.64;46.14;99341.50;5033060;28;20095;-78
2023/07/26 11:09:33;;;;;;;1.65;0.90;;;;;;;21.70;45.51;99338.19;5051430;28;20049;-79
2023/07/26 11:12:09;;;;;;;1.42;1.13;;;;;;;21.79;45.75;99339.00;5033768;28;20405;-79
2023/07/26 11:14:37;;;;;;;1.42;0.98;;;;;;;21.86;46.30;99334.66;5051226;28;20040;-78
2023/07/26 11:17:12;;;;;;;1.33;1.13;;;;;;;21.92;44.35;99343.00;5032926;28;20053;-79
2023/07/26 11:19:49;;;;;;;2.80;1.25;;;;;;;22.07;46.15;99335.94;5050872;28;20053;-79
2023/07/26 11:22:18;;;;;;;1.17;1.08;;;;;;;22.38;46.27;99339.63;5050869;28;20555;-78
2023/07/26 11:24:46;;;;;;;1.48;1.38;;;;;;;22.70;45.92;99335.16;5051034;28;20057;-78
2023/07/26 11:27:13;;;;;;;1.40;1.30;;;;;;;23.04;45.70;99344.66;5050615;28;20094;-79
2023/07/26 11:29:39;;;;;;;2.72;1.45;;;;;;;23.29;44.03;99344.41;5050955;28;20505;-80
2023/07/26 11:32:06;;;;;;;2.30;1.75;;;;;;;23.41;43.50;99339.47;5050768;28;20099;-79
2023/07/26 11:34:33;;;;;;;2.92;2.03;;;;;;;23.47;42.65;99339.78;5051042;28;20053;-79
2023/07/26 11:37:07;;;;;;;2.20;1.48;;;;;;;23.42;42.21;99337.63;5050937;28;20115;-79